sensor_id;sensor_type;location;lat;lon;timestamp;pressure;altitude;pressure_sealevel;temperature;humidity
55675;BME280;41562;44.330;23.802;2023-04-27T00:01:27;99899.84;;;10.59;76.55
55675;BME280;41562;44.330;23.802;2023-04-27T00:03:54;99907.09;;;10.53;77.48
55675;BME280;41562;44.330;23.802;2023-04-27T00:06:22;99913.28;;;10.48;76.83
55675;BME280;41562;44.330;23.802;2023-04-27T00:08:50;99905.78;;;10.51;77.23
55675;BME280;41562;44.330;23.802;2023-04-27T00:11:17;99912.13;;;10.60;78.66
55675;BME280;41562;44.330;23.802;2023-04-27T00:13:44;99908.94;;;10.58;78.82
55675;BME280;41562;44.330;23.802;2023-04-27T00:16:15;99909.88;;;10.43;78.69
55675;BME280;41562;44.330;23.802;2023-04-27T00:18:42;99919.03;;;10.27;78.69
55675;BME280;41562;44.330;23.802;2023-04-27T00:21:10;99920.72;;;10.18;79.48
55675;BME280;41562;44.330;23.802;2023-04-27T00:23:37;99918.00;;;10.13;78.73
55675;BME280;41562;44.330;23.802;2023-04-27T00:26:04;99910.53;;;10.20;78.82
55675;BME280;41562;44.330;23.802;2023-04-27T00:28:33;99922.81;;;10.21;79.68
55675;BME280;41562;44.330;23.802;2023-04-27T00:31:00;99919.34;;;10.15;80.78
55675;BME280;41562;44.330;23.802;2023-04-27T00:33:29;99914.78;;;10.21;80.91
55675;BME280;41562;44.330;23.802;2023-04-27T00:35:59;99912.16;;;10.11;81.00
55675;BME280;41562;44.330;23.802;2023-04-27T00:38:28;99914.56;;;10.07;79.97
55675;BME280;41562;44.330;23.802;2023-04-27T00:41:03;99919.34;;;10.15;79.47
55675;BME280;41562;44.330;23.802;2023-04-27T00:43:31;99925.47;;;10.21;79.67
55675;BME280;41562;44.330;23.802;2023-04-27T00:45:59;99919.22;;;9.86;80.01
55675;BME280;41562;44.330;23.802;2023-04-27T00:48:27;99924.78;;;9.95;80.45
55675;BME280;41562;44.330;23.802;2023-04-27T00:50:54;99917.59;;;9.90;80.16
55675;BME280;41562;44.330;23.802;2023-04-27T00:53:22;99920.78;;;9.97;79.77
55675;BME280;41562;44.330;23.802;2023-04-27T00:55:49;99915.16;;;9.94;79.19
55675;BME280;41562;44.330;23.802;2023-04-27T00:58:17;99921.69;;;9.67;80.34
55675;BME280;41562;44.330;23.802;2023-04-27T01:00:45;99922.47;;;9.78;80.84
55675;BME280;41562;44.330;23.802;2023-04-27T01:03:12;99928.31;;;9.85;80.37
55675;BME280;41562;44.330;23.802;2023-04-27T01:05:40;99926.50;;;9.71;81.00
55675;BME280;41562;44.330;23.802;2023-04-27T01:08:08;99930.50;;;9.73;82.34
55675;BME280;41562;44.330;23.802;2023-04-27T01:10:36;99939.78;;;9.81;81.21
55675;BME280;41562;44.330;23.802;2023-04-27T01:13:03;99940.06;;;9.74;81.91
55675;BME280;41562;44.330;23.802;2023-04-27T01:15:31;99932.31;;;9.83;80.67
55675;BME280;41562;44.330;23.802;2023-04-27T01:18:00;99938.56;;;9.48;81.48
55675;BME280;41562;44.330;23.802;2023-04-27T01:20:31;99934.25;;;9.62;81.50
55675;BME280;41562;44.330;23.802;2023-04-27T01:22:59;99944.47;;;9.24;82.26
55675;BME280;41562;44.330;23.802;2023-04-27T01:25:26;99946.00;;;9.56;82.08
55675;BME280;41562;44.330;23.802;2023-04-27T01:27:54;99945.72;;;9.62;82.37
55675;BME280;41562;44.330;23.802;2023-04-27T01:30:21;99950.25;;;9.62;82.78
55675;BME280;41562;44.330;23.802;2023-04-27T01:32:48;99943.34;;;9.61;82.81
55675;BME280;41562;44.330;23.802;2023-04-27T01:35:16;99948.13;;;9.64;83.20
55675;BME280;41562;44.330;23.802;2023-04-27T01:37:44;99958.56;;;9.50;84.04
55675;BME280;41562;44.330;23.802;2023-04-27T01:40:11;99953.00;;;9.42;84.68
55675;BME280;41562;44.330;23.802;2023-04-27T01:42:39;99963.91;;;9.60;85.80
55675;BME280;41562;44.330;23.802;2023-04-27T01:45:07;99961.50;;;9.49;84.65
55675;BME280;41562;44.330;23.802;2023-04-27T01:47:35;99957.75;;;9.60;86.14
55675;BME280;41562;44.330;23.802;2023-04-27T01:50:05;99960.41;;;9.55;85.66
55675;BME280;41562;44.330;23.802;2023-04-27T01:52:33;99962.81;;;9.61;85.33
55675;BME280;41562;44.330;23.802;2023-04-27T01:55:00;99972.19;;;9.49;86.52
55675;BME280;41562;44.330;23.802;2023-04-27T01:57:27;99980.19;;;9.59;86.38
55675;BME280;41562;44.330;23.802;2023-04-27T01:59:55;99978.84;;;9.66;87.36
55675;BME280;41562;44.330;23.802;2023-04-27T02:02:22;99983.38;;;9.66;85.50
55675;BME280;41562;44.330;23.802;2023-04-27T02:04:50;99978.03;;;9.56;85.16
55675;BME280;41562;44.330;23.802;2023-04-27T02:07:18;99974.34;;;9.47;86.17
55675;BME280;41562;44.330;23.802;2023-04-27T02:09:45;99982.34;;;9.42;85.24
55675;BME280;41562;44.330;23.802;2023-04-27T02:12:13;99981.28;;;9.33;86.08
55675;BME280;41562;44.330;23.802;2023-04-27T02:14:40;99976.50;;;9.24;87.30
55675;BME280;41562;44.330;23.802;2023-04-27T02:17:07;99987.44;;;9.13;87.03
55675;BME280;41562;44.330;23.802;2023-04-27T02:19:35;99977.03;;;9.21;86.74
55675;BME280;41562;44.330;23.802;2023-04-27T02:22:02;99987.44;;;9.28;86.23
55675;BME280;41562;44.330;23.802;2023-04-27T02:24:30;99994.38;;;9.14;87.13
55675;BME280;41562;44.330;23.802;2023-04-27T02:26:57;99999.97;;;9.12;86.84
55675;BME280;41562;44.330;23.802;2023-04-27T02:29:29;99993.28;;;9.30;86.67
55675;BME280;41562;44.330;23.802;2023-04-27T02:31:57;99985.28;;;9.30;85.42
55675;BME280;41562;44.330;23.802;2023-04-27T02:34:25;100002.38;;;9.19;84.65
55675;BME280;41562;44.330;23.802;2023-04-27T02:36:52;100001.84;;;9.27;84.27
55675;BME280;41562;44.330;23.802;2023-04-27T02:39:20;99996.75;;;9.41;83.39
55675;BME280;41562;44.330;23.802;2023-04-27T02:41:47;100000.22;;;9.46;82.79
55675;BME280;41562;44.330;23.802;2023-04-27T02:44:14;100002.59;;;9.58;83.02
55675;BME280;41562;44.330;23.802;2023-04-27T02:46:42;99997.56;;;9.41;82.18
55675;BME280;41562;44.330;23.802;2023-04-27T02:49:09;100003.69;;;9.32;83.85
55675;BME280;41562;44.330;23.802;2023-04-27T02:51:37;100000.50;;;9.40;85.56
55675;BME280;41562;44.330;23.802;2023-04-27T02:54:04;100010.06;;;9.56;84.96
55675;BME280;41562;44.330;23.802;2023-04-27T02:56:31;99999.44;;;9.36;85.92
55675;BME280;41562;44.330;23.802;2023-04-27T02:58:59;100005.31;;;9.07;86.50
55675;BME280;41562;44.330;23.802;2023-04-27T03:01:26;99994.63;;;9.12;87.76
55675;BME280;41562;44.330;23.802;2023-04-27T03:03:56;100003.69;;;9.11;88.33
55675;BME280;41562;44.330;23.802;2023-04-27T03:06:24;100002.09;;;9.46;87.05
55675;BME280;41562;44.330;23.802;2023-04-27T03:08:52;100003.72;;;9.21;88.60
55675;BME280;41562;44.330;23.802;2023-04-27T03:11:19;100006.91;;;9.18;89.88
55675;BME280;41562;44.330;23.802;2023-04-27T03:13:49;100006.91;;;9.13;90.70
55675;BME280;41562;44.330;23.802;2023-04-27T03:16:16;100014.38;;;9.32;91.85
55675;BME280;41562;44.330;23.802;2023-04-27T03:18:44;100011.44;;;9.18;93.00
55675;BME280;41562;44.330;23.802;2023-04-27T03:21:12;100027.97;;;9.30;92.85
55675;BME280;41562;44.330;23.802;2023-04-27T03:23:40;100022.91;;;9.23;96.48
55675;BME280;41562;44.330;23.802;2023-04-27T03:26:08;100028.25;;;9.23;95.75
55675;BME280;41562;44.330;23.802;2023-04-27T03:28:37;100017.88;;;10.37;95.07
55675;BME280;41562;44.330;23.802;2023-04-27T03:31:13;100014.47;;;12.20;86.79
55675;BME280;41562;44.330;23.802;2023-04-27T03:33:40;100018.31;;;12.14;84.27
55675;BME280;41562;44.330;23.802;2023-04-27T03:36:08;100024.09;;;12.82;84.47
55675;BME280;41562;44.330;23.802;2023-04-27T03:38:36;100027.66;;;13.61;80.81
55675;BME280;41562;44.330;23.802;2023-04-27T03:41:04;100031.31;;;13.38;80.60
55675;BME280;41562;44.330;23.802;2023-04-27T03:43:32;100029.38;;;12.87;83.34
55675;BME280;41562;44.330;23.802;2023-04-27T03:46:00;100031.13;;;11.35;89.98
55675;BME280;41562;44.330;23.802;2023-04-27T03:48:28;100038.25;;;10.72;93.38
55675;BME280;41562;44.330;23.802;2023-04-27T03:50:56;100037.03;;;10.54;95.90
55675;BME280;41562;44.330;23.802;2023-04-27T03:53:26;100035.63;;;10.67;97.47
55675;BME280;41562;44.330;23.802;2023-04-27T03:55:54;100040.28;;;11.29;94.62
55675;BME280;41562;44.330;23.802;2023-04-27T03:58:23;100045.19;;;12.70;86.39
55675;BME280;41562;44.330;23.802;2023-04-27T04:00:50;100043.22;;;12.38;87.92
55675;BME280;41562;44.330;23.802;2023-04-27T04:03:18;100045.91;;;12.57;85.58
55675;BME280;41562;44.330;23.802;2023-04-27T04:05:46;100048.25;;;14.53;76.98
55675;BME280;41562;44.330;23.802;2023-04-27T04:08:13;100049.66;;;12.13;87.05
55675;BME280;41562;44.330;23.802;2023-04-27T04:10:41;100049.97;;;11.20;93.93
55675;BME280;41562;44.330;23.802;2023-04-27T04:13:08;100055.59;;;10.79;96.94
55675;BME280;41562;44.330;23.802;2023-04-27T04:15:38;100055.69;;;10.64;99.55
55675;BME280;41562;44.330;23.802;2023-04-27T04:18:06;100059.22;;;10.49;100.00
55675;BME280;41562;44.330;23.802;2023-04-27T04:20:33;100059.97;;;10.65;100.00
55675;BME280;41562;44.330;23.802;2023-04-27T04:23:01;100059.47;;;10.58;100.00
55675;BME280;41562;44.330;23.802;2023-04-27T04:25:28;100060.25;;;10.59;100.00
55675;BME280;41562;44.330;23.802;2023-04-27T04:27:55;100064.34;;;10.41;100.00
55675;BME280;41562;44.330;23.802;2023-04-27T04:30:22;100063.28;;;10.42;100.00
55675;BME280;41562;44.330;23.802;2023-04-27T04:32:49;100065.97;;;10.32;100.00
55675;BME280;41562;44.330;23.802;2023-04-27T04:35:17;100067.09;;;10.05;100.00
55675;BME280;41562;44.330;23.802;2023-04-27T04:37:44;100072.44;;;10.05;100.00
55675;BME280;41562;44.330;23.802;2023-04-27T04:40:12;100068.09;;;10.40;100.00
55675;BME280;41562;44.330;23.802;2023-04-27T04:42:40;100065.25;;;10.11;100.00
55675;BME280;41562;44.330;23.802;2023-04-27T04:45:07;100074.03;;;10.27;100.00
55675;BME280;41562;44.330;23.802;2023-04-27T04:47:34;100069.69;;;10.41;100.00
55675;BME280;41562;44.330;23.802;2023-04-27T04:50:02;100078.16;;;10.58;100.00
55675;BME280;41562;44.330;23.802;2023-04-27T04:52:29;100077.38;;;10.58;100.00
55675;BME280;41562;44.330;23.802;2023-04-27T04:54:56;100086.84;;;10.35;100.00
55675;BME280;41562;44.330;23.802;2023-04-27T04:57:23;100085.81;;;10.11;100.00
55675;BME280;41562;44.330;23.802;2023-04-27T04:59:51;100080.97;;;10.13;100.00
55675;BME280;41562;44.330;23.802;2023-04-27T05:02:18;100085.78;;;10.16;100.00
55675;BME280;41562;44.330;23.802;2023-04-27T05:04:47;100091.63;;;10.38;100.00
55675;BME280;41562;44.330;23.802;2023-04-27T05:07:18;100103.38;;;10.42;100.00
55675;BME280;41562;44.330;23.802;2023-04-27T05:09:55;100102.97;;;10.69;100.00
55675;BME280;41562;44.330;23.802;2023-04-27T05:12:22;100109.53;;;10.42;100.00
55675;BME280;41562;44.330;23.802;2023-04-27T05:14:50;100108.75;;;10.27;100.00
55675;BME280;41562;44.330;23.802;2023-04-27T05:17:17;100110.00;;;10.49;100.00
55675;BME280;41562;44.330;23.802;2023-04-27T05:19:45;100116.25;;;10.30;100.00
55675;BME280;41562;44.330;23.802;2023-04-27T05:22:13;100108.13;;;10.50;100.00
55675;BME280;41562;44.330;23.802;2023-04-27T05:24:40;100117.28;;;10.39;100.00
55675;BME280;41562;44.330;23.802;2023-04-27T05:27:08;100111.63;;;10.45;100.00
55675;BME280;41562;44.330;23.802;2023-04-27T05:29:36;100116.97;;;10.56;100.00
55675;BME280;41562;44.330;23.802;2023-04-27T05:32:03;100113.44;;;10.65;100.00
55675;BME280;41562;44.330;23.802;2023-04-27T05:34:31;100120.81;;;10.19;100.00
55675;BME280;41562;44.330;23.802;2023-04-27T05:36:58;100117.84;;;10.26;100.00
55675;BME280;41562;44.330;23.802;2023-04-27T05:39:25;100124.28;;;10.20;100.00
55675;BME280;41562;44.330;23.802;2023-04-27T05:41:52;100123.66;;;10.48;100.00
55675;BME280;41562;44.330;23.802;2023-04-27T05:44:19;100132.66;;;10.72;100.00
55675;BME280;41562;44.330;23.802;2023-04-27T05:46:50;100127.31;;;10.72;100.00
55675;BME280;41562;44.330;23.802;2023-04-27T05:49:17;100129.22;;;10.67;100.00
55675;BME280;41562;44.330;23.802;2023-04-27T05:51:44;100130.53;;;10.69;100.00
55675;BME280;41562;44.330;23.802;2023-04-27T05:54:11;100136.41;;;10.71;100.00
55675;BME280;41562;44.330;23.802;2023-04-27T05:56:38;100128.72;;;10.55;100.00
55675;BME280;41562;44.330;23.802;2023-04-27T05:59:05;100139.91;;;10.67;100.00
55675;BME280;41562;44.330;23.802;2023-04-27T06:01:33;100134.28;;;10.68;100.00
55675;BME280;41562;44.330;23.802;2023-04-27T06:04:00;100141.44;;;10.83;100.00
55675;BME280;41562;44.330;23.802;2023-04-27T06:06:30;100135.25;;;10.93;100.00
55675;BME280;41562;44.330;23.802;2023-04-27T06:08:57;100132.41;;;10.64;100.00
55675;BME280;41562;44.330;23.802;2023-04-27T06:11:25;100139.66;;;10.68;100.00
55675;BME280;41562;44.330;23.802;2023-04-27T06:13:52;100150.88;;;10.65;100.00
55675;BME280;41562;44.330;23.802;2023-04-27T06:16:19;100150.59;;;10.72;100.00
55675;BME280;41562;44.330;23.802;2023-04-27T06:18:48;100146.06;;;10.62;100.00
55675;BME280;41562;44.330;23.802;2023-04-27T06:21:15;100153.44;;;10.91;100.00
55675;BME280;41562;44.330;23.802;2023-04-27T06:23:43;100156.63;;;10.98;100.00
55675;BME280;41562;44.330;23.802;2023-04-27T06:26:10;100143.28;;;10.87;100.00
55675;BME280;41562;44.330;23.802;2023-04-27T06:28:37;100149.13;;;11.00;100.00
55675;BME280;41562;44.330;23.802;2023-04-27T06:31:05;100151.81;;;11.00;100.00
55675;BME280;41562;44.330;23.802;2023-04-27T06:33:32;100154.00;;;10.82;100.00
55675;BME280;41562;44.330;23.802;2023-04-27T06:36:00;100153.38;;;11.06;100.00
55675;BME280;41562;44.330;23.802;2023-04-27T06:38:27;100151.13;;;11.23;98.16
55675;BME280;41562;44.330;23.802;2023-04-27T06:40:54;100147.88;;;11.31;100.00
55675;BME280;41562;44.330;23.802;2023-04-27T06:43:22;100148.28;;;11.48;96.93
55675;BME280;41562;44.330;23.802;2023-04-27T06:45:49;100150.56;;;11.26;97.03
55675;BME280;41562;44.330;23.802;2023-04-27T06:48:17;100142.03;;;11.24;97.95
55675;BME280;41562;44.330;23.802;2023-04-27T06:50:46;100149.13;;;11.39;98.67
55675;BME280;41562;44.330;23.802;2023-04-27T06:53:13;100161.66;;;14.14;84.97
55675;BME280;41562;44.330;23.802;2023-04-27T06:55:41;100154.66;;;11.91;90.95
55675;BME280;41562;44.330;23.802;2023-04-27T06:58:12;100152.59;;;12.12;90.81
55675;BME280;41562;44.330;23.802;2023-04-27T07:00:40;100157.13;;;11.88;90.14
55675;BME280;41562;44.330;23.802;2023-04-27T07:03:07;100156.97;;;11.64;92.64
55675;BME280;41562;44.330;23.802;2023-04-27T07:05:35;100157.53;;;12.00;91.54
55675;BME280;41562;44.330;23.802;2023-04-27T07:08:02;100148.06;;;11.79;91.40
55675;BME280;41562;44.330;23.802;2023-04-27T07:10:34;100147.03;;;11.75;91.94
55675;BME280;41562;44.330;23.802;2023-04-27T07:13:01;100153.63;;;11.87;92.26
55675;BME280;41562;44.330;23.802;2023-04-27T07:15:35;100152.91;;;11.72;93.33
55675;BME280;41562;44.330;23.802;2023-04-27T07:18:03;100154.72;;;11.86;93.23
55675;BME280;41562;44.330;23.802;2023-04-27T07:20:31;100149.34;;;12.15;92.86
55675;BME280;41562;44.330;23.802;2023-04-27T07:22:58;100160.69;;;12.07;91.37
55675;BME280;41562;44.330;23.802;2023-04-27T07:25:26;100158.19;;;12.16;91.13
55675;BME280;41562;44.330;23.802;2023-04-27T07:27:53;100157.44;;;11.81;91.50
55675;BME280;41562;44.330;23.802;2023-04-27T07:30:21;100157.38;;;11.86;91.41
55675;BME280;41562;44.330;23.802;2023-04-27T07:32:48;100153.25;;;11.99;91.87
55675;BME280;41562;44.330;23.802;2023-04-27T07:35:19;100161.94;;;11.86;90.79
55675;BME280;41562;44.330;23.802;2023-04-27T07:37:46;100157.50;;;12.05;90.33
55675;BME280;41562;44.330;23.802;2023-04-27T07:40:15;100161.00;;;12.29;88.23
55675;BME280;41562;44.330;23.802;2023-04-27T07:42:43;100165.91;;;12.46;88.27
55675;BME280;41562;44.330;23.802;2023-04-27T07:45:11;100165.06;;;12.51;85.88
55675;BME280;41562;44.330;23.802;2023-04-27T07:47:38;100164.22;;;12.55;86.30
55675;BME280;41562;44.330;23.802;2023-04-27T07:50:06;100161.75;;;12.59;86.48
55675;BME280;41562;44.330;23.802;2023-04-27T07:52:33;100170.38;;;12.98;84.50
55675;BME280;41562;44.330;23.802;2023-04-27T07:55:01;100173.53;;;13.05;83.15
55675;BME280;41562;44.330;23.802;2023-04-27T07:57:29;100179.41;;;13.07;82.89
55675;BME280;41562;44.330;23.802;2023-04-27T07:59:56;100167.63;;;13.03;80.59
55675;BME280;41562;44.330;23.802;2023-04-27T08:02:26;100178.41;;;13.78;81.90
55675;BME280;41562;44.330;23.802;2023-04-27T08:04:54;100182.72;;;13.42;80.10
55675;BME280;41562;44.330;23.802;2023-04-27T08:07:23;100182.53;;;13.89;79.25
55675;BME280;41562;44.330;23.802;2023-04-27T08:12:35;100183.03;;;14.37;75.84
55675;BME280;41562;44.330;23.802;2023-04-27T08:15:04;100173.47;;;15.00;73.02
55675;BME280;41562;44.330;23.802;2023-04-27T08:17:32;100169.94;;;15.26;69.01
55675;BME280;41562;44.330;23.802;2023-04-27T08:19:59;100178.28;;;15.39;69.15
55675;BME280;41562;44.330;23.802;2023-04-27T08:22:29;100180.44;;;15.50;68.92
55675;BME280;41562;44.330;23.802;2023-04-27T08:24:56;100173.00;;;15.34;69.83
55675;BME280;41562;44.330;23.802;2023-04-27T08:27:24;100174.34;;;15.58;67.77
55675;BME280;41562;44.330;23.802;2023-04-27T08:29:51;100183.47;;;15.49;67.30
55675;BME280;41562;44.330;23.802;2023-04-27T08:32:19;100180.06;;;15.43;67.46
55675;BME280;41562;44.330;23.802;2023-04-27T08:34:46;100184.88;;;15.33;67.15
55675;BME280;41562;44.330;23.802;2023-04-27T08:37:15;100178.31;;;15.25;68.78
55675;BME280;41562;44.330;23.802;2023-04-27T08:39:42;100181.78;;;14.76;68.70
55675;BME280;41562;44.330;23.802;2023-04-27T08:42:10;100182.75;;;14.39;72.89
55675;BME280;41562;44.330;23.802;2023-04-27T08:44:42;100174.94;;;14.24;72.40
55675;BME280;41562;44.330;23.802;2023-04-27T08:47:10;100181.50;;;14.18;72.54
55675;BME280;41562;44.330;23.802;2023-04-27T08:49:37;100174.34;;;14.27;72.12
55675;BME280;41562;44.330;23.802;2023-04-27T08:52:15;100181.19;;;14.52;72.66
55675;BME280;41562;44.330;23.802;2023-04-27T08:54:43;100166.94;;;14.78;69.33
55675;BME280;41562;44.330;23.802;2023-04-27T08:57:12;100172.31;;;14.65;70.83
55675;BME280;41562;44.330;23.802;2023-04-27T08:59:41;100168.22;;;14.40;69.53
55675;BME280;41562;44.330;23.802;2023-04-27T09:02:19;100168.94;;;14.59;71.50
55675;BME280;41562;44.330;23.802;2023-04-27T09:04:47;100171.00;;;14.62;70.10
55675;BME280;41562;44.330;23.802;2023-04-27T09:07:17;100166.81;;;14.83;68.76
55675;BME280;41562;44.330;23.802;2023-04-27T09:09:44;100164.00;;;14.88;69.29
55675;BME280;41562;44.330;23.802;2023-04-27T09:12:17;100168.00;;;14.91;70.09
55675;BME280;41562;44.330;23.802;2023-04-27T09:14:59;100164.63;;;15.35;69.45
55675;BME280;41562;44.330;23.802;2023-04-27T09:17:27;100166.84;;;16.22;66.80
55675;BME280;41562;44.330;23.802;2023-04-27T09:20:06;100159.25;;;16.64;67.77
55675;BME280;41562;44.330;23.802;2023-04-27T09:22:46;100165.25;;;16.21;65.92
55675;BME280;41562;44.330;23.802;2023-04-27T09:27:52;100164.25;;;15.28;65.57
55675;BME280;41562;44.330;23.802;2023-04-27T09:30:20;100156.81;;;15.69;65.15
55675;BME280;41562;44.330;23.802;2023-04-27T09:32:52;100154.84;;;16.37;67.21
55675;BME280;41562;44.330;23.802;2023-04-27T09:35:28;100157.50;;;17.76;67.25
55675;BME280;41562;44.330;23.802;2023-04-27T09:37:56;100158.28;;;17.68;57.97
55675;BME280;41562;44.330;23.802;2023-04-27T09:40:25;100152.22;;;17.54;59.32
55675;BME280;41562;44.330;23.802;2023-04-27T09:42:59;100154.91;;;17.28;61.97
55675;BME280;41562;44.330;23.802;2023-04-27T09:45:28;100154.59;;;16.56;62.15
55675;BME280;41562;44.330;23.802;2023-04-27T09:47:57;100141.59;;;16.18;59.04
55675;BME280;41562;44.330;23.802;2023-04-27T09:50:24;100146.16;;;16.57;54.66
55675;BME280;41562;44.330;23.802;2023-04-27T09:52:51;100146.06;;;16.62;54.42
55675;BME280;41562;44.330;23.802;2023-04-27T09:55:35;100143.38;;;16.71;53.46
55675;BME280;41562;44.330;23.802;2023-04-27T10:03:31;100131.44;;;16.63;53.25
55675;BME280;41562;44.330;23.802;2023-04-27T10:08:37;100126.78;;;17.20;50.08
55675;BME280;41562;44.330;23.802;2023-04-27T10:11:17;100133.13;;;17.85;46.69
55675;BME280;41562;44.330;23.802;2023-04-27T10:13:51;100125.63;;;17.90;47.13
55675;BME280;41562;44.330;23.802;2023-04-27T10:16:23;100130.41;;;17.85;50.95
55675;BME280;41562;44.330;23.802;2023-04-27T10:18:54;100116.69;;;18.07;49.39
55675;BME280;41562;44.330;23.802;2023-04-27T10:21:22;100115.00;;;17.77;51.76
55675;BME280;41562;44.330;23.802;2023-04-27T10:23:50;100122.53;;;18.18;50.94
55675;BME280;41562;44.330;23.802;2023-04-27T10:26:26;100119.22;;;18.03;51.53
55675;BME280;41562;44.330;23.802;2023-04-27T10:29:07;100121.22;;;18.24;49.63
55675;BME280;41562;44.330;23.802;2023-04-27T10:31:42;100112.31;;;18.23;48.51
55675;BME280;41562;44.330;23.802;2023-04-27T10:34:14;100109.00;;;18.18;49.33
55675;BME280;41562;44.330;23.802;2023-04-27T10:36:41;100120.25;;;17.56;50.46
55675;BME280;41562;44.330;23.802;2023-04-27T10:39:20;100103.69;;;17.83;49.95
55675;BME280;41562;44.330;23.802;2023-04-27T10:41:56;100098.66;;;17.13;50.20
55675;BME280;41562;44.330;23.802;2023-04-27T10:44:28;100098.34;;;17.32;51.65
55675;BME280;41562;44.330;23.802;2023-04-27T10:46:57;100099.44;;;17.48;50.32
55675;BME280;41562;44.330;23.802;2023-04-27T10:49:28;100090.03;;;17.54;48.88
55675;BME280;41562;44.330;23.802;2023-04-27T10:51:57;100091.66;;;17.20;50.06
55675;BME280;41562;44.330;23.802;2023-04-27T10:54:28;100094.19;;;17.43;50.56
55675;BME280;41562;44.330;23.802;2023-04-27T10:59:32;100082.41;;;17.47;49.65
55675;BME280;41562;44.330;23.802;2023-04-27T11:02:00;100078.94;;;17.38;50.81
55675;BME280;41562;44.330;23.802;2023-04-27T11:04:37;100075.56;;;17.50;49.26
55675;BME280;41562;44.330;23.802;2023-04-27T11:07:09;100081.91;;;17.80;46.41
55675;BME280;41562;44.330;23.802;2023-04-27T11:09:38;100072.00;;;17.84;46.19
55675;BME280;41562;44.330;23.802;2023-04-27T11:12:07;100071.66;;;18.70;49.06
55675;BME280;41562;44.330;23.802;2023-04-27T11:14:34;100074.56;;;19.27;46.12
55675;BME280;41562;44.330;23.802;2023-04-27T11:17:03;100070.50;;;19.33;45.21
55675;BME280;41562;44.330;23.802;2023-04-27T11:19:30;100073.22;;;19.33;44.50
55675;BME280;41562;44.330;23.802;2023-04-27T11:22:04;100070.97;;;18.73;44.82
55675;BME280;41562;44.330;23.802;2023-04-27T11:24:32;100076.41;;;18.35;44.56
55675;BME280;41562;44.330;23.802;2023-04-27T11:26:59;100079.06;;;17.67;44.04
55675;BME280;41562;44.330;23.802;2023-04-27T11:29:36;100076.00;;;17.86;44.87
55675;BME280;41562;44.330;23.802;2023-04-27T11:32:04;100078.69;;;17.95;44.45
55675;BME280;41562;44.330;23.802;2023-04-27T11:34:32;100086.38;;;17.41;44.80
55675;BME280;41562;44.330;23.802;2023-04-27T11:37:01;100080.84;;;17.38;44.55
55675;BME280;41562;44.330;23.802;2023-04-27T11:39:45;100079.91;;;17.16;46.04
55675;BME280;41562;44.330;23.802;2023-04-27T11:42:24;100091.63;;;16.86;46.23
55675;BME280;41562;44.330;23.802;2023-04-27T11:45:02;100083.78;;;16.50;47.69
55675;BME280;41562;44.330;23.802;2023-04-27T11:47:31;100092.47;;;16.47;48.86
55675;BME280;41562;44.330;23.802;2023-04-27T11:50:00;100099.63;;;16.43;48.59
55675;BME280;41562;44.330;23.802;2023-04-27T11:54:57;100097.44;;;16.14;49.57
55675;BME280;41562;44.330;23.802;2023-04-27T11:57:26;100091.56;;;16.12;48.78
55675;BME280;41562;44.330;23.802;2023-04-27T11:59:56;100085.34;;;16.03;49.30
55675;BME280;41562;44.330;23.802;2023-04-27T12:02:24;100086.84;;;16.18;48.04
55675;BME280;41562;44.330;23.802;2023-04-27T12:04:53;100080.28;;;16.10;47.70
55675;BME280;41562;44.330;23.802;2023-04-27T12:07:21;100080.16;;;16.15;47.75
55675;BME280;41562;44.330;23.802;2023-04-27T12:09:48;100093.56;;;16.37;48.98
55675;BME280;41562;44.330;23.802;2023-04-27T12:12:16;100083.63;;;16.16;46.63
55675;BME280;41562;44.330;23.802;2023-04-27T12:14:44;100082.56;;;16.25;47.02
55675;BME280;41562;44.330;23.802;2023-04-27T12:17:11;100085.13;;;16.39;48.35
55675;BME280;41562;44.330;23.802;2023-04-27T12:19:39;100084.75;;;16.15;47.00
55675;BME280;41562;44.330;23.802;2023-04-27T12:22:07;100084.59;;;16.11;48.01
55675;BME280;41562;44.330;23.802;2023-04-27T12:24:34;100078.63;;;15.92;46.48
55675;BME280;41562;44.330;23.802;2023-04-27T12:27:02;100081.38;;;16.09;46.13
55675;BME280;41562;44.330;23.802;2023-04-27T12:29:30;100080.53;;;15.91;43.48
55675;BME280;41562;44.330;23.802;2023-04-27T12:31:58;100089.53;;;16.26;46.71
55675;BME280;41562;44.330;23.802;2023-04-27T12:34:26;100074.00;;;16.23;45.91
55675;BME280;41562;44.330;23.802;2023-04-27T12:36:53;100076.88;;;16.35;45.61
55675;BME280;41562;44.330;23.802;2023-04-27T12:39:22;100070.84;;;16.86;43.09
55675;BME280;41562;44.330;23.802;2023-04-27T12:41:49;100071.31;;;16.80;41.36
55675;BME280;41562;44.330;23.802;2023-04-27T12:44:18;100070.63;;;16.66;40.99
55675;BME280;41562;44.330;23.802;2023-04-27T12:46:46;100070.91;;;16.56;41.68
55675;BME280;41562;44.330;23.802;2023-04-27T12:49:13;100072.22;;;16.67;42.08
55675;BME280;41562;44.330;23.802;2023-04-27T12:51:41;100071.53;;;16.53;41.69
55675;BME280;41562;44.330;23.802;2023-04-27T12:54:09;100067.72;;;16.54;41.67
55675;BME280;41562;44.330;23.802;2023-04-27T12:56:36;100061.03;;;16.42;41.41
55675;BME280;41562;44.330;23.802;2023-04-27T12:59:04;100057.28;;;16.61;40.69
55675;BME280;41562;44.330;23.802;2023-04-27T13:01:31;100057.81;;;17.06;42.73
55675;BME280;41562;44.330;23.802;2023-04-27T13:04:03;100064.31;;;17.31;41.82
55675;BME280;41562;44.330;23.802;2023-04-27T13:06:31;100062.41;;;16.79;41.56
55675;BME280;41562;44.330;23.802;2023-04-27T13:08:58;100056.25;;;16.39;42.29